N78AL LPMA-LPPT
Flight info
| Callsign | N78AL |
|---|---|
| Flight time | N/A |
| Altitude | 40000 |
| Route | DEGUN DCT NARTA DCT ESUTI |
| Aircraft | CL60/M-SADE3FGHIJ3J4J7P2RWXY/HB1D1 |
Departure
| Time | N/A |
|---|---|
| Airport | Cristiano Ronaldo International Airport (LPMA) |
Arrival
| Time | 2026-05-01 11:01 |
|---|---|
| Airport | Lisbon Humberto Delgado Airport (LPPT) |
| Time | Latitude | Longitude | Altitude | Speed | Heading |
|---|---|---|---|---|---|
| 2026-05-01 10:04 | 34.50429 | -14.41716 | 39577 ft | 467 kts | 39° |
| 2026-05-01 10:05 | 34.55105 | -14.36265 | 39716 ft | 467 kts | 39° |
| 2026-05-01 10:05 | 34.59799 | -14.30785 | 39831 ft | 467 kts | 40° |
| 2026-05-01 10:06 | 34.64483 | -14.25307 | 39931 ft | 467 kts | 40° |
| 2026-05-01 10:06 | 34.69186 | -14.19798 | 39993 ft | 468 kts | 40° |
| 2026-05-01 10:07 | 34.73876 | -14.14296 | 39998 ft | 469 kts | 40° |
| 2026-05-01 10:07 | 34.78587 | -14.08760 | 39999 ft | 470 kts | 40° |
| 2026-05-01 10:08 | 34.85686 | -14.00399 | 39999 ft | 471 kts | 40° |
| 2026-05-01 10:09 | 34.90393 | -13.94843 | 39999 ft | 470 kts | 40° |
| 2026-05-01 10:09 | 34.95099 | -13.89279 | 39999 ft | 470 kts | 40° |
| 2026-05-01 10:10 | 34.99794 | -13.83720 | 39998 ft | 470 kts | 40° |
| 2026-05-01 10:10 | 35.06813 | -13.75390 | 39999 ft | 470 kts | 40° |
| 2026-05-01 10:11 | 35.11498 | -13.69818 | 39999 ft | 470 kts | 40° |
| 2026-05-01 10:11 | 35.16193 | -13.64226 | 39999 ft | 470 kts | 40° |
| 2026-05-01 10:12 | 35.20894 | -13.58616 | 39999 ft | 470 kts | 40° |
| 2026-05-01 10:13 | 35.27948 | -13.50180 | 39999 ft | 470 kts | 40° |
| 2026-05-01 10:13 | 35.32638 | -13.44560 | 39999 ft | 470 kts | 40° |
| 2026-05-01 10:14 | 35.39631 | -13.36161 | 39999 ft | 470 kts | 40° |
| 2026-05-01 10:14 | 35.44300 | -13.30542 | 39998 ft | 470 kts | 41° |
| 2026-05-01 10:15 | 35.48961 | -13.24923 | 39998 ft | 470 kts | 40° |
| 2026-05-01 10:15 | 35.53646 | -13.19265 | 39999 ft | 470 kts | 41° |
| 2026-05-01 10:16 | 35.58331 | -13.13597 | 39998 ft | 470 kts | 41° |
| 2026-05-01 10:17 | 35.65314 | -13.05131 | 39999 ft | 470 kts | 40° |
| 2026-05-01 10:17 | 35.72340 | -12.96590 | 39998 ft | 470 kts | 40° |
| 2026-05-01 10:18 | 35.79327 | -12.88076 | 39999 ft | 470 kts | 40° |
| 2026-05-01 10:19 | 35.83992 | -12.82378 | 39999 ft | 470 kts | 40° |
| 2026-05-01 10:19 | 35.88635 | -12.76697 | 39999 ft | 470 kts | 40° |
| 2026-05-01 10:20 | 35.95630 | -12.68121 | 39999 ft | 470 kts | 40° |
| 2026-05-01 10:20 | 36.00263 | -12.62428 | 39999 ft | 470 kts | 41° |
| 2026-05-01 10:21 | 36.07307 | -12.53888 | 39999 ft | 469 kts | 38° |
| 2026-05-01 10:22 | 36.14492 | -12.45686 | 39999 ft | 469 kts | 38° |
| 2026-05-01 10:23 | 36.21682 | -12.37452 | 39999 ft | 469 kts | 38° |
| 2026-05-01 10:23 | 36.28880 | -12.29187 | 39998 ft | 469 kts | 39° |
| 2026-05-01 10:24 | 36.38526 | -12.18074 | 39999 ft | 469 kts | 39° |
| 2026-05-01 10:25 | 36.48142 | -12.06957 | 39998 ft | 469 kts | 39° |
| 2026-05-01 10:26 | 36.52929 | -12.01408 | 39999 ft | 469 kts | 39° |
| 2026-05-01 10:27 | 36.62489 | -11.90295 | 39998 ft | 469 kts | 39° |
| 2026-05-01 10:28 | 36.69639 | -11.81959 | 39999 ft | 469 kts | 39° |
| 2026-05-01 10:28 | 36.76821 | -11.73561 | 39999 ft | 469 kts | 39° |
| 2026-05-01 10:29 | 36.83983 | -11.65166 | 39998 ft | 469 kts | 39° |
| 2026-05-01 10:30 | 36.93515 | -11.53957 | 39999 ft | 469 kts | 39° |
| 2026-05-01 10:31 | 37.03011 | -11.42747 | 39999 ft | 460 kts | 39° |
| 2026-05-01 10:32 | 37.09916 | -11.34570 | 39999 ft | 452 kts | 39° |
| 2026-05-01 10:33 | 37.19045 | -11.23733 | 39999 ft | 452 kts | 39° |
| 2026-05-01 10:34 | 37.25913 | -11.15552 | 39998 ft | 452 kts | 39° |
| 2026-05-01 10:34 | 37.30496 | -11.10082 | 39998 ft | 452 kts | 39° |
| 2026-05-01 10:35 | 37.37368 | -11.01860 | 39998 ft | 452 kts | 39° |
| 2026-05-01 10:35 | 37.41914 | -10.96409 | 39998 ft | 452 kts | 39° |
| 2026-05-01 10:36 | 37.48798 | -10.88137 | 39998 ft | 452 kts | 39° |
| 2026-05-01 10:37 | 37.53375 | -10.82625 | 39998 ft | 452 kts | 39° |
| 2026-05-01 10:37 | 37.60229 | -10.74351 | 39721 ft | 460 kts | 39° |
| 2026-05-01 10:38 | 37.62585 | -10.71509 | 38194 ft | 482 kts | 40° |
| 2026-05-01 10:38 | 37.65031 | -10.68555 | 36495 ft | 497 kts | 41° |
| 2026-05-01 10:38 | 37.67514 | -10.65544 | 35460 ft | 491 kts | 41° |
| 2026-05-01 10:38 | 37.69941 | -10.62597 | 34601 ft | 484 kts | 41° |
| 2026-05-01 10:39 | 37.72366 | -10.59651 | 33758 ft | 478 kts | 41° |
| 2026-05-01 10:39 | 37.74731 | -10.56775 | 32943 ft | 471 kts | 41° |
| 2026-05-01 10:39 | 37.77103 | -10.53886 | 32127 ft | 465 kts | 41° |
| 2026-05-01 10:39 | 37.79398 | -10.51092 | 31341 ft | 459 kts | 41° |
| 2026-05-01 10:40 | 37.81702 | -10.48282 | 30552 ft | 452 kts | 41° |
| 2026-05-01 10:40 | 37.83961 | -10.45526 | 29780 ft | 447 kts | 41° |
| 2026-05-01 10:40 | 37.86148 | -10.42804 | 29027 ft | 442 kts | 43° |
| 2026-05-01 10:40 | 37.88241 | -10.40017 | 28283 ft | 436 kts | 44° |
| 2026-05-01 10:41 | 37.90304 | -10.37255 | 27547 ft | 431 kts | 44° |
| 2026-05-01 10:41 | 37.92354 | -10.34509 | 26810 ft | 426 kts | 45° |
| 2026-05-01 10:41 | 37.96373 | -10.29118 | 25340 ft | 417 kts | 45° |
| 2026-05-01 10:42 | 37.98359 | -10.26450 | 24603 ft | 412 kts | 45° |
| 2026-05-01 10:42 | 38.00320 | -10.23814 | 23862 ft | 408 kts | 45° |
| 2026-05-01 10:42 | 38.02235 | -10.21238 | 23137 ft | 404 kts | 45° |
| 2026-05-01 10:42 | 38.04151 | -10.18657 | 22411 ft | 399 kts | 45° |
| 2026-05-01 10:43 | 38.06030 | -10.16124 | 21696 ft | 394 kts | 45° |
| 2026-05-01 10:43 | 38.07907 | -10.13592 | 20979 ft | 389 kts | 45° |
| 2026-05-01 10:43 | 38.09734 | -10.11126 | 20279 ft | 384 kts | 45° |
| 2026-05-01 10:43 | 38.11562 | -10.08657 | 19582 ft | 382 kts | 45° |
| 2026-05-01 10:44 | 38.13390 | -10.06184 | 18891 ft | 379 kts | 45° |
| 2026-05-01 10:44 | 38.15184 | -10.03756 | 18220 ft | 376 kts | 45° |
| 2026-05-01 10:44 | 38.16979 | -10.01348 | 17779 ft | 370 kts | 42° |
| 2026-05-01 10:44 | 38.19032 | -9.99455 | 17365 ft | 365 kts | 25° |
| 2026-05-01 10:45 | 38.21378 | -9.98179 | 16938 ft | 363 kts | 20° |
| 2026-05-01 10:45 | 38.23708 | -9.96965 | 16535 ft | 362 kts | 20° |
| 2026-05-01 10:45 | 38.26035 | -9.95745 | 16134 ft | 360 kts | 20° |
| 2026-05-01 10:45 | 38.28345 | -9.94532 | 15735 ft | 358 kts | 21° |
| 2026-05-01 10:46 | 38.30632 | -9.93330 | 15340 ft | 351 kts | 21° |
| 2026-05-01 10:46 | 38.32873 | -9.92151 | 14951 ft | 339 kts | 21° |
| 2026-05-01 10:46 | 38.35018 | -9.91021 | 14583 ft | 328 kts | 21° |
| 2026-05-01 10:46 | 38.37102 | -9.89923 | 14223 ft | 318 kts | 21° |
| 2026-05-01 10:47 | 38.39122 | -9.88859 | 13875 ft | 310 kts | 21° |
| 2026-05-01 10:47 | 38.41104 | -9.87813 | 13532 ft | 308 kts | 21° |
| 2026-05-01 10:47 | 38.43105 | -9.86759 | 13185 ft | 309 kts | 21° |
| 2026-05-01 10:47 | 38.45081 | -9.85716 | 12844 ft | 308 kts | 21° |
| 2026-05-01 10:48 | 38.47072 | -9.84665 | 12500 ft | 307 kts | 21° |
| 2026-05-01 10:48 | 38.49054 | -9.83617 | 12157 ft | 305 kts | 21° |
| 2026-05-01 10:48 | 38.51024 | -9.82575 | 11817 ft | 304 kts | 22° |
| 2026-05-01 10:48 | 38.52822 | -9.81256 | 11475 ft | 299 kts | 39° |
| 2026-05-01 10:49 | 38.54160 | -9.79240 | 11115 ft | 293 kts | 60° |
| 2026-05-01 10:49 | 38.54888 | -9.76859 | 10760 ft | 288 kts | 74° |
| 2026-05-01 10:49 | 38.55403 | -9.74404 | 10436 ft | 281 kts | 74° |
| 2026-05-01 10:49 | 38.55901 | -9.72048 | 10137 ft | 276 kts | 74° |
| 2026-05-01 10:50 | 38.56408 | -9.69655 | 9827 ft | 277 kts | 74° |
| 2026-05-01 10:50 | 38.56847 | -9.67272 | 9518 ft | 276 kts | 83° |
| 2026-05-01 10:50 | 38.56891 | -9.64813 | 9204 ft | 275 kts | 90° |
| 2026-05-01 10:50 | 38.56880 | -9.62402 | 8901 ft | 274 kts | 90° |
| 2026-05-01 10:51 | 38.56874 | -9.59959 | 8388 ft | 277 kts | 90° |
| 2026-05-01 10:51 | 38.56868 | -9.57442 | 7555 ft | 286 kts | 90° |
| 2026-05-01 10:51 | 38.56863 | -9.54895 | 6751 ft | 289 kts | 90° |
| 2026-05-01 10:51 | 38.56858 | -9.52350 | 6280 ft | 277 kts | 90° |
| 2026-05-01 10:52 | 38.56853 | -9.49991 | 5968 ft | 263 kts | 90° |
| 2026-05-01 10:52 | 38.56848 | -9.47647 | 5452 ft | 259 kts | 90° |
| 2026-05-01 10:52 | 38.56843 | -9.45365 | 5057 ft | 250 kts | 90° |
| 2026-05-01 10:52 | 38.56838 | -9.43199 | 4790 ft | 233 kts | 90° |
| 2026-05-01 10:53 | 38.56834 | -9.41257 | 4772 ft | 209 kts | 90° |
| 2026-05-01 10:53 | 38.56830 | -9.39456 | 4673 ft | 192 kts | 90° |
| 2026-05-01 10:53 | 38.56827 | -9.37845 | 4638 ft | 164 kts | 90° |
| 2026-05-01 10:53 | 38.56823 | -9.36397 | 4813 ft | 166 kts | 91° |
| 2026-05-01 10:54 | 38.56818 | -9.34941 | 5002 ft | 166 kts | 91° |
| 2026-05-01 10:54 | 38.56813 | -9.33445 | 5187 ft | 166 kts | 91° |
| 2026-05-01 10:54 | 38.56808 | -9.31941 | 5111 ft | 169 kts | 91° |
| 2026-05-01 10:54 | 38.57012 | -9.30473 | 4744 ft | 169 kts | 71° |
| 2026-05-01 10:55 | 38.57464 | -9.29089 | 4181 ft | 170 kts | 69° |
| 2026-05-01 10:55 | 38.57903 | -9.27753 | 3866 ft | 159 kts | 69° |
| 2026-05-01 10:55 | 38.58334 | -9.26427 | 3809 ft | 162 kts | 69° |
| 2026-05-01 10:55 | 38.58767 | -9.25096 | 3819 ft | 162 kts | 69° |
| 2026-05-01 10:56 | 38.59312 | -9.23830 | 3809 ft | 164 kts | 48° |
| 2026-05-01 10:56 | 38.60316 | -9.23076 | 3707 ft | 169 kts | 24° |
| 2026-05-01 10:56 | 38.61400 | -9.22530 | 3438 ft | 164 kts | 24° |
| 2026-05-01 10:56 | 38.62466 | -9.21966 | 3255 ft | 164 kts | 24° |
| 2026-05-01 10:57 | 38.63526 | -9.21400 | 3040 ft | 164 kts | 25° |
| 2026-05-01 10:57 | 38.64578 | -9.20839 | 2837 ft | 164 kts | 25° |
| 2026-05-01 10:57 | 38.65641 | -9.20271 | 2620 ft | 164 kts | 25° |
| 2026-05-01 10:57 | 38.66703 | -9.19704 | 2408 ft | 164 kts | 25° |
| 2026-05-01 10:58 | 38.67762 | -9.19139 | 2192 ft | 163 kts | 25° |
| 2026-05-01 10:58 | 38.68811 | -9.18578 | 1983 ft | 163 kts | 25° |
| 2026-05-01 10:58 | 38.69864 | -9.18016 | 1769 ft | 162 kts | 25° |
| 2026-05-01 10:58 | 38.70882 | -9.17473 | 1575 ft | 153 kts | 25° |
| 2026-05-01 10:59 | 38.71848 | -9.16958 | 1365 ft | 148 kts | 25° |
| 2026-05-01 10:59 | 38.72790 | -9.16454 | 1175 ft | 145 kts | 25° |
| 2026-05-01 10:59 | 38.73724 | -9.15953 | 988 ft | 143 kts | 25° |
| 2026-05-01 10:59 | 38.74626 | -9.15470 | 808 ft | 135 kts | 25° |
| 2026-05-01 11:00 | 38.75472 | -9.15018 | 637 ft | 132 kts | 26° |
| 2026-05-01 11:00 | 38.76324 | -9.14558 | 447 ft | 131 kts | 26° |
| 2026-05-01 11:00 | 38.77138 | -9.14137 | 353 ft | 116 kts | 27° |
| 2026-05-01 11:00 | 38.77739 | -9.13801 | 357 ft | 51 kts | 22° |
| 2026-05-01 11:01 | 38.77887 | -9.13705 | 357 ft | 2 kts | 21° |
| 2026-05-01 11:01 | 38.77871 | -9.13714 | 357 ft | 0 kts | 22° |
| 2026-05-01 11:01 | 38.77870 | -9.13714 | 357 ft | 2 kts | 22° |